Frederike Selmer — V7QY8 — position and weather

sailwx.info

Track history (hours):
 
Tides and Currents Weather Stations Pressure Air Temp Water Temp Dewpoint Dewpoint Depression Visibility Wind Speed Wind Dir Waves Ship Positions

Frederike Selmer

Last reported at 2017-Nov-04 05:35 UTC. Time now 2017-Nov-23 01:59 UTC.
Position N 05°07' W 000°09'.
Warning: this ship's position is 18 days out of date.

Length 188 m; draft 6.2 m.

Type: Cargo ship. MMSI: 538007012.

Date/timePositionNaut miles runAvg speedWind from/ knotsBaromVisibWave heightAir tempDewpointWater temp
2017-Nov-04 05:35N 05°07' W 000°09'113.0
2017-Nov-04 05:30N 05°08' W 000°08'713.1
2017-Nov-04 05:00N 05°10' W 000°02'613.0
2017-Nov-04 04:30N 05°13' E 000°04'712.8
2017-Nov-04 03:57N 05°15' E 000°11'612.8
2017-Nov-04 03:30N 05°17' E 000°16'16 1.2
2017-Nov-03 13:57N 05°24' E 000°31'512.2
2017-Nov-03 13:30N 05°26' E 000°26'612.3
2017-Nov-03 13:00N 05°28' E 000°20'612.1
2017-Nov-03 12:31N 05°30' E 000°14'612.0
2017-Nov-03 12:00N 05°32' E 000°08'611.9
2017-Nov-03 11:30N 05°34' E 000°03'3 4.5
2017-Nov-03 10:57N 05°34' E 000°00'0 0.1
2017-Nov-03 10:30N 05°34' E 000°00'0 0.0
2017-Nov-03 10:00N 05°34' E 000°00'0 0.0
2017-Nov-03 09:30N 05°34' E 000°00'0 0.0
2017-Nov-03 08:57N 05°34' E 000°00'0 0.0
2017-Nov-03 08:30N 05°34' E 000°00'0 0.0
2017-Nov-03 08:00N 05°34' E 000°00'0 0.0
2017-Nov-03 07:30N 05°34' E 000°00'0 0.0
2017-Nov-03 07:00N 05°34' E 000°00'0 0.0
2017-Nov-03 06:30N 05°34' E 000°00'0 0.0
2017-Nov-03 06:00N 05°34' E 000°00'0 0.0
2017-Nov-03 05:30N 05°34' E 000°00'0 0.0
2017-Nov-03 05:00N 05°34' E 000°00'0 0.0
2017-Nov-03 04:30N 05°34' E 000°00'0 0.0
2017-Nov-03 04:00N 05°34' E 000°00'0 0.0
2017-Nov-03 03:30N 05°34' E 000°00'0 0.0
2017-Nov-03 03:00N 05°34' E 000°00'0 0.0
2017-Nov-03 02:30N 05°34' E 000°00'0 0.0
2017-Nov-03 02:00N 05°34' E 000°00'0 0.0
2017-Nov-03 01:30N 05°34' E 000°00'0 0.0
2017-Nov-03 00:57N 05°34' E 000°00'0 0.0
2017-Nov-03 00:30N 05°34' E 000°00'0 0.0
2017-Nov-03 00:00N 05°34' E 000°00'0 0.0
2017-Nov-02 23:30N 05°34' E 000°00'0 0.0
2017-Nov-02 23:00N 05°34' E 000°00'0 0.0
2017-Nov-02 22:30N 05°34' E 000°00'0 0.0
2017-Nov-02 22:00N 05°34' E 000°00'0 0.0
2017-Nov-02 21:30N 05°35' E 000°00'0 0.0
2017-Nov-02 21:00N 05°35' E 000°00'0 0.0
2017-Nov-02 20:30N 05°35' E 000°00'0 0.4
2017-Nov-02 20:00N 05°35' E 000°01'3 6.3
2017-Nov-02 19:30N 05°37' E 000°02'2 3.7
2017-Nov-02 19:00N 05°38' E 000°01'0 0.0
2017-Nov-02 18:29N 05°38' E 000°01'0 0.0
2017-Nov-02 17:59N 05°38' E 000°01'0 0.0
2017-Nov-02 17:29N 05°38' E 000°01'0 0.0
2017-Nov-02 16:59N 05°38' E 000°01'0 0.0
2017-Nov-02 16:29N 05°38' E 000°01'0 0.0
2017-Nov-02 15:59N 05°38' E 000°01'0 0.0
2017-Nov-02 15:29N 05°38' E 000°01'0 0.0
2017-Nov-02 14:59N 05°38' E 000°01'0 0.0
2017-Nov-02 14:29N 05°38' E 000°01'0 0.0
2017-Nov-02 13:59N 05°38' E 000°01'0 0.0
2017-Nov-02 13:29N 05°38' E 000°01'0 0.0
2017-Nov-02 12:59N 05°38' E 000°01'0 0.0
2017-Nov-02 12:29N 05°38' E 000°01'0 0.0
2017-Nov-02 11:59N 05°38' E 000°01'0 0.0
2017-Nov-02 11:29N 05°38' E 000°01'0 0.0
2017-Nov-02 10:59N 05°38' E 000°01'0 0.0
2017-Nov-02 10:29N 05°38' E 000°01'0 0.0
2017-Nov-02 09:59N 05°38' E 000°01'0 0.0
2017-Nov-02 09:29N 05°38' E 000°01'0 0.0
2017-Nov-02 08:59N 05°38' E 000°01'0 0.0
2017-Nov-02 08:29N 05°38' E 000°01'0 0.0
2017-Nov-02 07:59N 05°38' E 000°01'0 0.0
2017-Nov-02 07:29N 05°38' E 000°01'0 0.0
2017-Nov-02 06:59N 05°38' E 000°01'0 0.0
2017-Nov-02 06:29N 05°38' E 000°01'0 0.0
2017-Nov-02 05:59N 05°38' E 000°01'0 0.0
2017-Nov-02 05:29N 05°38' E 000°01'0 0.0
2017-Nov-02 04:59N 05°38' E 000°01'0 0.0
2017-Nov-02 04:29N 05°38' E 000°01'0 0.0
2017-Nov-02 03:59N 05°38' E 000°01'0 0.0
2017-Nov-02 03:26N 05°38' E 000°01'0 0.0
2017-Nov-02 02:59N 05°38' E 000°01'0 0.0
2017-Nov-02 02:29N 05°38' E 000°01'0 0.0
2017-Nov-02 01:59N 05°38' E 000°01'0 0.0
2017-Nov-02 01:29N 05°38' E 000°01'0 0.0
2017-Nov-02 00:59N 05°38' E 000°01'0 0.0
2017-Nov-02 00:29N 05°38' E 000°01'0 0.0
2017-Nov-01 23:59N 05°38' E 000°01'0 0.0
2017-Nov-01 23:29N 05°38' E 000°01'0 0.0
2017-Nov-01 22:59N 05°38' E 000°01'0 0.0
2017-Nov-01 22:29N 05°38' E 000°01'0 0.0
2017-Nov-01 21:59N 05°38' E 000°01'0 0.0
2017-Nov-01 21:29N 05°38' E 000°01'0 0.0
2017-Nov-01 20:59N 05°38' E 000°01'0 0.0
2017-Nov-01 20:29N 05°38' E 000°01'0 0.0
2017-Nov-01 19:59N 05°38' E 000°01'0 0.0
2017-Nov-01 19:29N 05°38' E 000°01'0 0.0
2017-Nov-01 18:59N 05°38' E 000°01'0 0.0
2017-Nov-01 18:29N 05°38' E 000°01'0 0.0
2017-Nov-01 01:59N 05°38' E 000°01'0 0.0
2017-Nov-01 01:29N 05°38' E 000°01'0 0.0
2017-Nov-01 00:59N 05°38' E 000°01'0 0.0
2017-Nov-01 00:29N 05°38' E 000°01'0 0.0
2017-Oct-31 23:59N 05°38' E 000°01'0 0.0
2017-Oct-31 23:29N 05°38' E 000°01'0 0.0
2017-Oct-31 22:59N 05°38' E 000°01'0 0.0
2017-Oct-31 22:29N 05°38' E 000°01'0 0.0
2017-Oct-31 21:59N 05°38' E 000°01'0 0.0
2017-Oct-31 21:29N 05°38' E 000°01'0 0.0
2017-Oct-31 20:59N 05°38' E 000°01'0 0.0
2017-Oct-31 20:29N 05°38' E 000°01'0 0.0
2017-Oct-31 19:59N 05°38' E 000°01'0 0.0
2017-Oct-31 19:29N 05°38' E 000°01'0 0.0
2017-Oct-31 18:59N 05°38' E 000°01'0 0.0
2017-Oct-31 18:29N 05°38' E 000°01'0 0.0
2017-Oct-31 17:59N 05°38' E 000°01'0 0.0
2017-Oct-31 17:29N 05°38' E 000°01'0 0.0
2017-Oct-31 16:59N 05°38' E 000°01'0 0.0
2017-Oct-31 16:29N 05°38' E 000°01'0 0.0
2017-Oct-31 15:59N 05°38' E 000°01'0 0.0
2017-Oct-31 15:29N 05°38' E 000°01'0 0.0
2017-Oct-31 14:59N 05°38' E 000°01'0 0.0
2017-Oct-31 14:29N 05°38' E 000°01'0 0.0
2017-Oct-31 13:59N 05°38' E 000°01'0 0.0
2017-Oct-31 13:29N 05°38' E 000°01'0 0.0
2017-Oct-31 12:59N 05°38' E 000°01'0 0.0
2017-Oct-31 12:29N 05°38' E 000°01'0 0.0
2017-Oct-31 11:59N 05°38' E 000°01'0 0.0
2017-Oct-31 11:29N 05°38' E 000°01'0 0.0
2017-Oct-31 10:59N 05°38' E 000°01'0 0.0
2017-Oct-31 10:29N 05°38' E 000°01'0 0.0
2017-Oct-31 09:59N 05°38' E 000°01'0 0.0
2017-Oct-31 09:23N 05°38' E 000°01'0 0.0
2017-Oct-31 08:59N 05°38' E 000°01'0 0.0
2017-Oct-31 08:29N 05°38' E 000°01'0 0.0
2017-Oct-31 07:56N 05°38' E 000°01'0 0.0
2017-Oct-31 07:29N 05°38' E 000°01'0 0.0
2017-Oct-31 06:59N 05°38' E 000°01'0 0.0
2017-Oct-31 06:29N 05°38' E 000°01'0 0.0
2017-Oct-31 05:59N 05°38' E 000°01'0 0.0
2017-Oct-31 05:29N 05°38' E 000°01'0 0.0
2017-Oct-31 04:59N 05°38' E 000°01'0 0.0
2017-Oct-31 04:29N 05°38' E 000°01'0 0.0
2017-Oct-31 03:59N 05°38' E 000°01'0 0.0
2017-Oct-31 03:29N 05°38' E 000°01'0 0.0
2017-Oct-31 02:59N 05°38' E 000°01'0 0.0
2017-Oct-31 02:29N 05°38' E 000°01'0 0.0
2017-Oct-31 01:59N 05°38' E 000°01'0 0.0
2017-Oct-31 01:29N 05°38' E 000°01'0 0.0
2017-Oct-31 00:59N 05°38' E 000°01'0 0.0
2017-Oct-31 00:29N 05°38' E 000°01'0 0.0
2017-Oct-30 23:56N 05°38' E 000°01'0 0.0
2017-Oct-30 23:29N 05°38' E 000°01'0 0.0
2017-Oct-30 22:59N 05°38' E 000°01'0 0.0
2017-Oct-30 22:29N 05°38' E 000°01'0 0.0
2017-Oct-30 21:59N 05°38' E 000°01'0 0.0
2017-Oct-30 21:29N 05°38' E 000°01'0 0.0
2017-Oct-30 20:59N 05°38' E 000°01'0 0.0
2017-Oct-30 20:29N 05°38' E 000°01'0 0.0
2017-Oct-30 19:59N 05°38' E 000°01'0 0.0
2017-Oct-30 19:29N 05°38' E 000°01'0 0.0
2017-Oct-30 18:59N 05°38' E 000°01'0 0.0
2017-Oct-30 18:29N 05°38' E 000°01'0 0.0
2017-Oct-30 17:59N 05°38' E 000°01'0 0.0
2017-Oct-30 17:29N 05°38' E 000°01'0 0.0
2017-Oct-30 16:59N 05°38' E 000°01'0 0.0
2017-Oct-30 16:29N 05°38' E 000°01'0 0.0
2017-Oct-30 15:59N 05°38' E 000°01'0 0.0
2017-Oct-30 15:29N 05°38' E 000°01'0 0.0
2017-Oct-30 14:59N 05°38' E 000°01'0 0.0
2017-Oct-30 13:59N 05°38' E 000°01'0 0.0
2017-Oct-30 13:29N 05°38' E 000°01'0 0.0
2017-Oct-30 12:59N 05°38' E 000°01'0 0.0
2017-Oct-30 12:29N 05°38' E 000°01'0 0.0
2017-Oct-30 11:59N 05°38' E 000°01'0 0.0
2017-Oct-30 11:29N 05°38' E 000°01'0 0.0
2017-Oct-30 10:59N 05°38' E 000°01'0 0.0
2017-Oct-30 10:29N 05°38' E 000°01'0 0.0
2017-Oct-30 09:59N 05°38' E 000°01'0 0.0
2017-Oct-30 09:29N 05°38' E 000°01'0 0.0
2017-Oct-30 08:59N 05°38' E 000°01'0 0.0
2017-Oct-30 08:29N 05°38' E 000°01'0 0.0
2017-Oct-30 07:53N 05°38' E 000°01'0 0.0
2017-Oct-30 07:29N 05°38' E 000°01'0 0.0
2017-Oct-30 06:59N 05°38' E 000°01'0 0.0
2017-Oct-30 06:29N 05°38' E 000°01'0 0.0
2017-Oct-30 05:59N 05°38' E 000°01'0 0.0
2017-Oct-30 05:29N 05°38' E 000°01'0 0.0
2017-Oct-30 04:59N 05°38' E 000°01'0 0.0
2017-Oct-30 04:29N 05°38' E 000°01'0 0.0
2017-Oct-30 03:59N 05°38' E 000°01'0 0.0
2017-Oct-30 03:29N 05°38' E 000°01'0 0.0
2017-Oct-30 02:59N 05°38' E 000°01'0 0.0
2017-Oct-30 02:26N 05°38' E 000°01'0 0.0
2017-Oct-30 01:59N 05°38' E 000°01'0 0.0
2017-Oct-30 01:29N 05°38' E 000°01'0 0.0
2017-Oct-30 00:59N 05°38' E 000°01'0 0.0
2017-Oct-30 00:29N 05°38' E 000°01'0 0.0
2017-Oct-29 23:59N 05°38' E 000°01'0 0.0
2017-Oct-29 23:29N 05°38' E 000°01'0 0.0
2017-Oct-29 22:59N 05°38' E 000°01'0 0.0
2017-Oct-29 22:29N 05°38' E 000°01'0 0.0
2017-Oct-29 21:59N 05°38' E 000°01'0 0.0
2017-Oct-29 21:29N 05°38' E 000°01'0 0.0
2017-Oct-29 20:56N 05°38' E 000°01'0 0.0
2017-Oct-29 20:29N 05°38' E 000°01'0 0.0
2017-Oct-29 19:59N 05°38' E 000°01'0 0.0
2017-Oct-29 19:29N 05°38' E 000°01'0 0.0
2017-Oct-29 18:59N 05°38' E 000°01'0 0.0
2017-Oct-29 18:26N 05°38' E 000°01'0 0.0
2017-Oct-29 17:59N 05°38' E 000°01'0 0.0
2017-Oct-29 17:29N 05°38' E 000°01'0 0.0
2017-Oct-29 16:59N 05°38' E 000°01'0 0.0
2017-Oct-29 16:29N 05°38' E 000°01'0 0.0
2017-Oct-29 15:59N 05°38' E 000°01'0 0.0
2017-Oct-29 15:29N 05°38' E 000°01'0 0.0
2017-Oct-29 14:59N 05°38' E 000°01'0 0.0
2017-Oct-29 14:29N 05°38' E 000°01'0 0.0
2017-Oct-29 13:59N 05°38' E 000°01'0 0.0
2017-Oct-29 13:29N 05°38' E 000°01'0 0.0
2017-Oct-29 12:59N 05°38' E 000°01'0 0.0
2017-Oct-29 12:29N 05°38' E 000°01'0 0.0
2017-Oct-29 11:59N 05°38' E 000°01'0 0.0
2017-Oct-29 11:29N 05°38' E 000°01'0 0.0
2017-Oct-29 10:59N 05°38' E 000°01'0 0.0
2017-Oct-29 10:29N 05°38' E 000°01'0 0.0
2017-Oct-29 09:59N 05°38' E 000°01'0 0.0
2017-Oct-29 09:20N 05°38' E 000°01'0 0.0
2017-Oct-29 08:59N 05°38' E 000°01'0 0.0
2017-Oct-29 08:29N 05°38' E 000°01'0 0.0
2017-Oct-29 07:59N 05°38' E 000°01'0 0.0
2017-Oct-29 07:29N 05°38' E 000°01'0 0.0
2017-Oct-29 06:59N 05°38' E 000°01'0 0.0
2017-Oct-29 06:29N 05°38' E 000°01'0 0.0
2017-Oct-29 05:56N 05°38' E 000°01'0 0.0
2017-Oct-29 05:29N 05°38' E 000°01'0 0.0
2017-Oct-29 04:59N 05°38' E 000°01'0 0.0
2017-Oct-29 04:29N 05°38' E 000°01'0 0.0
2017-Oct-29 03:59N 05°38' E 000°01'0 0.0
2017-Oct-28 18:59N 05°38' E 000°01'0 0.0
2017-Oct-28 18:29N 05°38' E 000°01'0 0.0
2017-Oct-28 17:59N 05°38' E 000°01'0 0.0
2017-Oct-28 17:26N 05°38' E 000°01'0 0.0
2017-Oct-28 16:59N 05°38' E 000°01'0 0.0
2017-Oct-28 16:29N 05°38' E 000°01'0 0.0
2017-Oct-28 15:59N 05°38' E 000°01'0 0.0
2017-Oct-28 15:29N 05°38' E 000°01'0 0.0
2017-Oct-28 14:59N 05°38' E 000°01'0 0.0
2017-Oct-28 14:29N 05°38' E 000°01'0 0.0
2017-Oct-28 13:59N 05°38' E 000°01'0 0.0
2017-Oct-28 13:29N 05°38' E 000°01'0 0.0
2017-Oct-28 12:59N 05°38' E 000°01'0 0.2
2017-Oct-28 12:30N 05°38' E 000°01'1 2.9
2017-Oct-28 12:00N 05°38' E 000°02'0 0.1
2017-Oct-28 11:30N 05°38' E 000°02'2 3.1
2017-Oct-28 11:00N 05°38' E 000°04'0 0.4
2017-Oct-28 10:30N 05°38' E 000°03'0 0.6
2017-Oct-28 10:00N 05°37' E 000°03'1 1.2
2017-Oct-28 09:30N 05°37' E 000°03'0 0.8
2017-Oct-28 09:00N 05°36' E 000°03'3 5.4
2017-Oct-28 08:30N 05°34' E 000°01'0 0.4
2017-Oct-28 07:58N 05°34' E 000°01'0 0.0
2017-Oct-28 07:28N 05°34' E 000°01'0 0.0
2017-Oct-28 06:58N 05°34' E 000°01'0 0.1
2017-Oct-28 06:28N 05°34' E 000°01'0 0.1
2017-Oct-28 05:58N 05°34' E 000°01'0 0.1
2017-Oct-28 05:28N 05°34' E 000°01'0 0.0
2017-Oct-28 04:58N 05°34' E 000°01'0 0.0
2017-Oct-28 04:28N 05°34' E 000°01'0 0.0
2017-Oct-28 03:58N 05°34' E 000°01'0 0.0
2017-Oct-28 03:28N 05°34' E 000°01'0 0.0
2017-Oct-28 02:58N 05°34' E 000°01'0 0.0
2017-Oct-28 02:28N 05°34' E 000°01'0 0.0
2017-Oct-28 01:58N 05°34' E 000°01'0 0.0
2017-Oct-28 01:25N 05°34' E 000°01'0 0.0
2017-Oct-28 00:58N 05°34' E 000°01'0 0.0
2017-Oct-28 00:28N 05°34' E 000°01'0 0.0
2017-Oct-27 23:58N 05°34' E 000°01'0 0.0
2017-Oct-27 23:28N 05°34' E 000°01'0 0.0
2017-Oct-27 22:58N 05°34' E 000°01'0 0.0
2017-Oct-27 22:28N 05°34' E 000°01'0 0.0
2017-Oct-27 21:58N 05°34' E 000°01'0 0.0
2017-Oct-27 21:28N 05°34' E 000°01'0 0.0
2017-Oct-27 20:58N 05°34' E 000°01'0 0.1
2017-Oct-27 20:28N 05°34' E 000°01'0 0.1
2017-Oct-27 19:58N 05°34' E 000°01'0 0.0
2017-Oct-27 19:28N 05°34' E 000°01'0 0.0
2017-Oct-27 18:55N 05°34' E 000°01'0 0.0
2017-Oct-27 18:28N 05°34' E 000°01'0 0.0
2017-Oct-27 17:58N 05°34' E 000°01'0 0.1
2017-Oct-27 17:28N 05°34' E 000°01'0 0.0
2017-Oct-27 16:58N 05°34' E 000°01'0 0.0
2017-Oct-27 16:28N 05°34' E 000°01'0 0.0
2017-Oct-27 15:58N 05°34' E 000°01'0 0.0
2017-Oct-27 15:28N 05°34' E 000°01'0 0.0
2017-Oct-27 14:58N 05°34' E 000°01'0 0.0
2017-Oct-27 14:28N 05°34' E 000°01'0 0.0
2017-Oct-27 13:58N 05°34' E 000°01'0 0.0
2017-Oct-27 13:28N 05°34' E 000°01'0 0.0
2017-Oct-27 12:58N 05°34' E 000°01'0 0.0
2017-Oct-27 12:25N 05°34' E 000°01'0 0.0
2017-Oct-27 11:58N 05°34' E 000°01'0 0.0
2017-Oct-27 11:28N 05°34' E 000°01'0 0.0
2017-Oct-27 10:55N 05°34' E 000°01'0 0.0
2017-Oct-27 10:28N 05°34' E 000°01'0 0.0
2017-Oct-27 09:58N 05°34' E 000°01'0 0.0
2017-Oct-27 09:28N 05°34' E 000°01'0 0.0
2017-Oct-27 08:58N 05°34' E 000°01'0 0.0
2017-Oct-27 08:28N 05°34' E 000°01'0 0.0
2017-Oct-27 07:55N 05°34' E 000°01'0 0.0
2017-Oct-27 07:28N 05°34' E 000°01'0 0.0
2017-Oct-27 06:58N 05°34' E 000°01'0 0.0
2017-Oct-27 06:28N 05°34' E 000°01'0 0.0
2017-Oct-27 05:58N 05°34' E 000°01'0 0.0
2017-Oct-27 05:28N 05°34' E 000°01'0 0.0
2017-Oct-27 04:58N 05°34' E 000°01'0 0.0
2017-Oct-27 04:28N 05°34' E 000°01'0 0.1
2017-Oct-27 03:58N 05°34' E 000°01'0 0.1
2017-Oct-27 03:28N 05°34' E 000°01'0 0.0
2017-Oct-27 02:58N 05°34' E 000°01'0 0.0
2017-Oct-27 02:25N 05°34' E 000°01'0 0.0
2017-Oct-27 01:55N 05°34' E 000°01'0 0.0
2017-Oct-27 01:28N 05°34' E 000°01'0 0.0
2017-Oct-27 00:58N 05°34' E 000°01'0 0.0
2017-Oct-27 00:25N 05°34' E 000°01'0 0.0
2017-Oct-26 23:58N 05°34' E 000°01'0 0.0
2017-Oct-26 23:25N 05°34' E 000°01'0 0.0
2017-Oct-26 22:58N 05°34' E 000°01'0 0.0
2017-Oct-26 22:28N 05°34' E 000°01'0 0.0
2017-Oct-26 21:58N 05°34' E 000°01'0 0.0
2017-Oct-26 21:28N 05°34' E 000°01'0 0.1
2017-Oct-26 20:58N 05°34' E 000°01'0 0.0
2017-Oct-26 20:28N 05°34' E 000°01'0 0.0
2017-Oct-26 19:58N 05°34' E 000°01'0 0.1
2017-Oct-26 19:28N 05°34' E 000°01'0 0.1
2017-Oct-26 18:58N 05°34' E 000°01'0 0.0
2017-Oct-26 18:28N 05°34' E 000°01'0 0.0
2017-Oct-26 17:58N 05°34' E 000°01'0 0.1
2017-Oct-26 17:28N 05°34' E 000°01'0 0.0
2017-Oct-26 16:58N 05°34' E 000°01'0 0.0
2017-Oct-26 16:22N 05°34' E 000°01'0 0.1
2017-Oct-26 15:58N 05°34' E 000°01'0 0.0
2017-Oct-26 15:28N 05°34' E 000°01'0 0.1
2017-Oct-26 14:58N 05°34' E 000°01'0 0.1
2017-Oct-26 14:28N 05°34' E 000°01'0 0.0
2017-Oct-26 13:58N 05°34' E 000°01'0 0.0
2017-Oct-26 13:28N 05°34' E 000°01'0 0.0
2017-Oct-26 12:58N 05°34' E 000°01'0 0.0
2017-Oct-26 12:28N 05°34' E 000°01'0 0.0
2017-Oct-26 11:58N 05°34' E 000°01'0 0.0
2017-Oct-26 11:28N 05°34' E 000°01'0 0.1
2017-Oct-26 10:58N 05°34' E 000°01'0 0.1
2017-Oct-26 10:28N 05°34' E 000°01'0 0.0
2017-Oct-26 09:58N 05°34' E 000°01'0 0.0
2017-Oct-26 09:28N 05°34' E 000°01'0 0.0
2017-Oct-26 08:58N 05°34' E 000°01'0 0.0
2017-Oct-26 08:28N 05°34' E 000°01'0 0.0
2017-Oct-26 07:58N 05°34' E 000°01'0 0.0
2017-Oct-26 07:28N 05°34' E 000°01'0 0.0
2017-Oct-26 06:58N 05°34' E 000°01'0 0.0
2017-Oct-26 06:28N 05°34' E 000°01'0 0.0
2017-Oct-26 05:58N 05°34' E 000°01'0 0.0
2017-Oct-26 05:28N 05°34' E 000°01'0 0.0
2017-Oct-26 04:58N 05°34' E 000°01'0 0.0
2017-Oct-26 04:28N 05°34' E 000°01'0 0.0
2017-Oct-26 03:58N 05°34' E 000°01'0 0.0
2017-Oct-26 03:28N 05°34' E 000°01'0 0.0
2017-Oct-26 02:58N 05°34' E 000°01'0 0.0
2017-Oct-26 02:28N 05°34' E 000°01'0 0.0
2017-Oct-26 01:58N 05°34' E 000°01'0 0.0
2017-Oct-26 01:28N 05°34' E 000°01'0 0.0
2017-Oct-26 00:58N 05°34' E 000°01'0 0.0
2017-Oct-26 00:28N 05°34' E 000°01'0 0.0
2017-Oct-25 23:58N 05°34' E 000°01'0 0.0
2017-Oct-25 23:28N 05°34' E 000°01'0 0.1
2017-Oct-25 22:58N 05°34' E 000°01'0 0.0
2017-Oct-25 22:28N 05°34' E 000°01'0 0.0
2017-Oct-25 21:58N 05°34' E 000°01'0 0.0
2017-Oct-25 21:28N 05°34' E 000°01'0 0.0
2017-Oct-25 20:58N 05°34' E 000°01'0 0.0
2017-Oct-25 20:28N 05°34' E 000°01'0 0.0
2017-Oct-25 19:58N 05°34' E 000°01'0 0.0
2017-Oct-25 19:28N 05°34' E 000°01'0 0.0
2017-Oct-25 18:58N 05°34' E 000°01'0 0.0
2017-Oct-25 18:28N 05°34' E 000°01'0 0.0
2017-Oct-25 17:58N 05°34' E 000°01'0 0.0
2017-Oct-25 17:28N 05°34' E 000°01'0 0.0
2017-Oct-25 16:58N 05°34' E 000°01'0 0.0
2017-Oct-25 16:28N 05°34' E 000°01'0 0.0
2017-Oct-25 15:58N 05°34' E 000°01'0 0.0
2017-Oct-25 15:28N 05°34' E 000°01'0 0.0
2017-Oct-25 14:58N 05°34' E 000°01'0 0.0
2017-Oct-25 14:28N 05°34' E 000°01'0 0.0
2017-Oct-25 13:58N 05°34' E 000°01'0 0.0
2017-Oct-25 13:25N 05°34' E 000°01'0 0.2
2017-Oct-25 12:58N 05°34' E 000°01'1 2.1
2017-Oct-25 12:31N 05°34' E 000°02'4 8.4
2017-Oct-25 12:01N 05°30' E 000°03'510.8
2017-Oct-25 11:31N 05°24' E 000°02'510.8
2017-Oct-25 11:01N 05°21' W 000°02'612.5
2017-Oct-25 10:31N 05°17' W 000°07'714.2
2017-Oct-25 10:00N 05°13' W 000°13'  
Track history (hours):
 
Tides and Currents Weather Stations Pressure Air Temp Water Temp Dewpoint Dewpoint Depression Visibility Wind Speed Wind Dir Waves Ship Positions

Frederike Selmer

Last reported at 2017-Nov-04 05:35 UTC. Time now 2017-Nov-23 01:59 UTC.
Position N 05°07' W 000°09'.
Warning: this ship's position is 18 days out of date.

Length 188 m; draft 6.2 m.

Type: Cargo ship. MMSI: 538007012.

Date/timePositionNaut miles runAvg speedWind from/ knotsBaromVisibWave heightAir tempDewpointWater temp
2017-Nov-04 05:35N 05°07' W 000°09'113.0
2017-Nov-04 05:30N 05°08' W 000°08'713.1
2017-Nov-04 05:00N 05°10' W 000°02'613.0
2017-Nov-04 04:30N 05°13' E 000°04'712.8
2017-Nov-04 03:57N 05°15' E 000°11'612.8
2017-Nov-04 03:30N 05°17' E 000°16'16 1.2
2017-Nov-03 13:57N 05°24' E 000°31'512.2
2017-Nov-03 13:30N 05°26' E 000°26'612.3
2017-Nov-03 13:00N 05°28' E 000°20'612.1
2017-Nov-03 12:31N 05°30' E 000°14'612.0
2017-Nov-03 12:00N 05°32' E 000°08'611.9
2017-Nov-03 11:30N 05°34' E 000°03'3 4.5
2017-Nov-03 10:57N 05°34' E 000°00'0 0.1
2017-Nov-03 10:30N 05°34' E 000°00'0 0.0
2017-Nov-03 10:00N 05°34' E 000°00'0 0.0
2017-Nov-03 09:30N 05°34' E 000°00'0 0.0
2017-Nov-03 08:57N 05°34' E 000°00'0 0.0
2017-Nov-03 08:30N 05°34' E 000°00'0 0.0
2017-Nov-03 08:00N 05°34' E 000°00'0 0.0
2017-Nov-03 07:30N 05°34' E 000°00'0 0.0
2017-Nov-03 07:00N 05°34' E 000°00'0 0.0
2017-Nov-03 06:30N 05°34' E 000°00'0 0.0
2017-Nov-03 06:00N 05°34' E 000°00'0 0.0
2017-Nov-03 05:30N 05°34' E 000°00'0 0.0
2017-Nov-03 05:00N 05°34' E 000°00'0 0.0
2017-Nov-03 04:30N 05°34' E 000°00'0 0.0
2017-Nov-03 04:00N 05°34' E 000°00'0 0.0
2017-Nov-03 03:30N 05°34' E 000°00'0 0.0
2017-Nov-03 03:00N 05°34' E 000°00'0 0.0
2017-Nov-03 02:30N 05°34' E 000°00'0 0.0
2017-Nov-03 02:00N 05°34' E 000°00'0 0.0
2017-Nov-03 01:30N 05°34' E 000°00'0 0.0
2017-Nov-03 00:57N 05°34' E 000°00'0 0.0
2017-Nov-03 00:30N 05°34' E 000°00'0 0.0
2017-Nov-03 00:00N 05°34' E 000°00'0 0.0
2017-Nov-02 23:30N 05°34' E 000°00'0 0.0
2017-Nov-02 23:00N 05°34' E 000°00'0 0.0
2017-Nov-02 22:30N 05°34' E 000°00'0 0.0
2017-Nov-02 22:00N 05°34' E 000°00'0 0.0
2017-Nov-02 21:30N 05°35' E 000°00'0 0.0
2017-Nov-02 21:00N 05°35' E 000°00'0 0.0
2017-Nov-02 20:30N 05°35' E 000°00'0 0.4
2017-Nov-02 20:00N 05°35' E 000°01'3 6.3
2017-Nov-02 19:30N 05°37' E 000°02'2 3.7
2017-Nov-02 19:00N 05°38' E 000°01'0 0.0
2017-Nov-02 18:29N 05°38' E 000°01'0 0.0
2017-Nov-02 17:59N 05°38' E 000°01'0 0.0
2017-Nov-02 17:29N 05°38' E 000°01'0 0.0
2017-Nov-02 16:59N 05°38' E 000°01'0 0.0
2017-Nov-02 16:29N 05°38' E 000°01'0 0.0
2017-Nov-02 15:59N 05°38' E 000°01'0 0.0
2017-Nov-02 15:29N 05°38' E 000°01'0 0.0
2017-Nov-02 14:59N 05°38' E 000°01'0 0.0
2017-Nov-02 14:29N 05°38' E 000°01'0 0.0
2017-Nov-02 13:59N 05°38' E 000°01'0 0.0
2017-Nov-02 13:29N 05°38' E 000°01'0 0.0
2017-Nov-02 12:59N 05°38' E 000°01'0 0.0
2017-Nov-02 12:29N 05°38' E 000°01'0 0.0
2017-Nov-02 11:59N 05°38' E 000°01'0 0.0
2017-Nov-02 11:29N 05°38' E 000°01'0 0.0
2017-Nov-02 10:59N 05°38' E 000°01'0 0.0
2017-Nov-02 10:29N 05°38' E 000°01'0 0.0
2017-Nov-02 09:59N 05°38' E 000°01'0 0.0
2017-Nov-02 09:29N 05°38' E 000°01'0 0.0
2017-Nov-02 08:59N 05°38' E 000°01'0 0.0
2017-Nov-02 08:29N 05°38' E 000°01'0 0.0
2017-Nov-02 07:59N 05°38' E 000°01'0 0.0
2017-Nov-02 07:29N 05°38' E 000°01'0 0.0
2017-Nov-02 06:59N 05°38' E 000°01'0 0.0
2017-Nov-02 06:29N 05°38' E 000°01'0 0.0
2017-Nov-02 05:59N 05°38' E 000°01'0 0.0
2017-Nov-02 05:29N 05°38' E 000°01'0 0.0
2017-Nov-02 04:59N 05°38' E 000°01'0 0.0
2017-Nov-02 04:29N 05°38' E 000°01'0 0.0
2017-Nov-02 03:59N 05°38' E 000°01'0 0.0
2017-Nov-02 03:26N 05°38' E 000°01'0 0.0
2017-Nov-02 02:59N 05°38' E 000°01'0 0.0
2017-Nov-02 02:29N 05°38' E 000°01'0 0.0
2017-Nov-02 01:59N 05°38' E 000°01'0 0.0
2017-Nov-02 01:29N 05°38' E 000°01'0 0.0
2017-Nov-02 00:59N 05°38' E 000°01'0 0.0
2017-Nov-02 00:29N 05°38' E 000°01'0 0.0
2017-Nov-01 23:59N 05°38' E 000°01'0 0.0
2017-Nov-01 23:29N 05°38' E 000°01'0 0.0
2017-Nov-01 22:59N 05°38' E 000°01'0 0.0
2017-Nov-01 22:29N 05°38' E 000°01'0 0.0
2017-Nov-01 21:59N 05°38' E 000°01'0 0.0
2017-Nov-01 21:29N 05°38' E 000°01'0 0.0
2017-Nov-01 20:59N 05°38' E 000°01'0 0.0
2017-Nov-01 20:29N 05°38' E 000°01'0 0.0
2017-Nov-01 19:59N 05°38' E 000°01'0 0.0
2017-Nov-01 19:29N 05°38' E 000°01'0 0.0
2017-Nov-01 18:59N 05°38' E 000°01'0 0.0
2017-Nov-01 18:29N 05°38' E 000°01'0 0.0
2017-Nov-01 01:59N 05°38' E 000°01'0 0.0
2017-Nov-01 01:29N 05°38' E 000°01'0 0.0
2017-Nov-01 00:59N 05°38' E 000°01'0 0.0
2017-Nov-01 00:29N 05°38' E 000°01'0 0.0
2017-Oct-31 23:59N 05°38' E 000°01'0 0.0
2017-Oct-31 23:29N 05°38' E 000°01'0 0.0
2017-Oct-31 22:59N 05°38' E 000°01'0 0.0
2017-Oct-31 22:29N 05°38' E 000°01'0 0.0
2017-Oct-31 21:59N 05°38' E 000°01'0 0.0
2017-Oct-31 21:29N 05°38' E 000°01'0 0.0
2017-Oct-31 20:59N 05°38' E 000°01'0 0.0
2017-Oct-31 20:29N 05°38' E 000°01'0 0.0
2017-Oct-31 19:59N 05°38' E 000°01'0 0.0
2017-Oct-31 19:29N 05°38' E 000°01'0 0.0
2017-Oct-31 18:59N 05°38' E 000°01'0 0.0
2017-Oct-31 18:29N 05°38' E 000°01'0 0.0
2017-Oct-31 17:59N 05°38' E 000°01'0 0.0
2017-Oct-31 17:29N 05°38' E 000°01'0 0.0
2017-Oct-31 16:59N 05°38' E 000°01'0 0.0
2017-Oct-31 16:29N 05°38' E 000°01'0 0.0
2017-Oct-31 15:59N 05°38' E 000°01'0 0.0
2017-Oct-31 15:29N 05°38' E 000°01'0 0.0
2017-Oct-31 14:59N 05°38' E 000°01'0 0.0
2017-Oct-31 14:29N 05°38' E 000°01'0 0.0
2017-Oct-31 13:59N 05°38' E 000°01'0 0.0
2017-Oct-31 13:29N 05°38' E 000°01'0 0.0
2017-Oct-31 12:59N 05°38' E 000°01'0 0.0
2017-Oct-31 12:29N 05°38' E 000°01'0 0.0
2017-Oct-31 11:59N 05°38' E 000°01'0 0.0
2017-Oct-31 11:29N 05°38' E 000°01'0 0.0
2017-Oct-31 10:59N 05°38' E 000°01'0 0.0
2017-Oct-31 10:29N 05°38' E 000°01'0 0.0
2017-Oct-31 09:59N 05°38' E 000°01'0 0.0
2017-Oct-31 09:23N 05°38' E 000°01'0 0.0
2017-Oct-31 08:59N 05°38' E 000°01'0 0.0
2017-Oct-31 08:29N 05°38' E 000°01'0 0.0
2017-Oct-31 07:56N 05°38' E 000°01'0 0.0
2017-Oct-31 07:29N 05°38' E 000°01'0 0.0
2017-Oct-31 06:59N 05°38' E 000°01'0 0.0
2017-Oct-31 06:29N 05°38' E 000°01'0 0.0
2017-Oct-31 05:59N 05°38' E 000°01'0 0.0
2017-Oct-31 05:29N 05°38' E 000°01'0 0.0
2017-Oct-31 04:59N 05°38' E 000°01'0 0.0
2017-Oct-31 04:29N 05°38' E 000°01'0 0.0
2017-Oct-31 03:59N 05°38' E 000°01'0 0.0
2017-Oct-31 03:29N 05°38' E 000°01'0 0.0
2017-Oct-31 02:59N 05°38' E 000°01'0 0.0
2017-Oct-31 02:29N 05°38' E 000°01'0 0.0
2017-Oct-31 01:59N 05°38' E 000°01'0 0.0
2017-Oct-31 01:29N 05°38' E 000°01'0 0.0
2017-Oct-31 00:59N 05°38' E 000°01'0 0.0
2017-Oct-31 00:29N 05°38' E 000°01'0 0.0
2017-Oct-30 23:56N 05°38' E 000°01'0 0.0
2017-Oct-30 23:29N 05°38' E 000°01'0 0.0
2017-Oct-30 22:59N 05°38' E 000°01'0 0.0
2017-Oct-30 22:29N 05°38' E 000°01'0 0.0
2017-Oct-30 21:59N 05°38' E 000°01'0 0.0
2017-Oct-30 21:29N 05°38' E 000°01'0 0.0
2017-Oct-30 20:59N 05°38' E 000°01'0 0.0
2017-Oct-30 20:29N 05°38' E 000°01'0 0.0
2017-Oct-30 19:59N 05°38' E 000°01'0 0.0
2017-Oct-30 19:29N 05°38' E 000°01'0 0.0
2017-Oct-30 18:59N 05°38' E 000°01'0 0.0
2017-Oct-30 18:29N 05°38' E 000°01'0 0.0
2017-Oct-30 17:59N 05°38' E 000°01'0 0.0
2017-Oct-30 17:29N 05°38' E 000°01'0 0.0
2017-Oct-30 16:59N 05°38' E 000°01'0 0.0
2017-Oct-30 16:29N 05°38' E 000°01'0 0.0
2017-Oct-30 15:59N 05°38' E 000°01'0 0.0
2017-Oct-30 15:29N 05°38' E 000°01'0 0.0
2017-Oct-30 14:59N 05°38' E 000°01'0 0.0
2017-Oct-30 13:59N 05°38' E 000°01'0 0.0
2017-Oct-30 13:29N 05°38' E 000°01'0 0.0
2017-Oct-30 12:59N 05°38' E 000°01'0 0.0
2017-Oct-30 12:29N 05°38' E 000°01'0 0.0
2017-Oct-30 11:59N 05°38' E 000°01'0 0.0
2017-Oct-30 11:29N 05°38' E 000°01'0 0.0
2017-Oct-30 10:59N 05°38' E 000°01'0 0.0
2017-Oct-30 10:29N 05°38' E 000°01'0 0.0
2017-Oct-30 09:59N 05°38' E 000°01'0 0.0
2017-Oct-30 09:29N 05°38' E 000°01'0 0.0
2017-Oct-30 08:59N 05°38' E 000°01'0 0.0
2017-Oct-30 08:29N 05°38' E 000°01'0 0.0
2017-Oct-30 07:53N 05°38' E 000°01'0 0.0
2017-Oct-30 07:29N 05°38' E 000°01'0 0.0
2017-Oct-30 06:59N 05°38' E 000°01'0 0.0
2017-Oct-30 06:29N 05°38' E 000°01'0 0.0
2017-Oct-30 05:59N 05°38' E 000°01'0 0.0
2017-Oct-30 05:29N 05°38' E 000°01'0 0.0
2017-Oct-30 04:59N 05°38' E 000°01'0 0.0
2017-Oct-30 04:29N 05°38' E 000°01'0 0.0
2017-Oct-30 03:59N 05°38' E 000°01'0 0.0
2017-Oct-30 03:29N 05°38' E 000°01'0 0.0
2017-Oct-30 02:59N 05°38' E 000°01'0 0.0
2017-Oct-30 02:26N 05°38' E 000°01'0 0.0
2017-Oct-30 01:59N 05°38' E 000°01'0 0.0
2017-Oct-30 01:29N 05°38' E 000°01'0 0.0
2017-Oct-30 00:59N 05°38' E 000°01'0 0.0
2017-Oct-30 00:29N 05°38' E 000°01'0 0.0
2017-Oct-29 23:59N 05°38' E 000°01'0 0.0
2017-Oct-29 23:29N 05°38' E 000°01'0 0.0
2017-Oct-29 22:59N 05°38' E 000°01'0 0.0
2017-Oct-29 22:29N 05°38' E 000°01'0 0.0
2017-Oct-29 21:59N 05°38' E 000°01'0 0.0
2017-Oct-29 21:29N 05°38' E 000°01'0 0.0
2017-Oct-29 20:56N 05°38' E 000°01'0 0.0
2017-Oct-29 20:29N 05°38' E 000°01'0 0.0
2017-Oct-29 19:59N 05°38' E 000°01'0 0.0
2017-Oct-29 19:29N 05°38' E 000°01'0 0.0
2017-Oct-29 18:59N 05°38' E 000°01'0 0.0
2017-Oct-29 18:26N 05°38' E 000°01'0 0.0
2017-Oct-29 17:59N 05°38' E 000°01'0 0.0
2017-Oct-29 17:29N 05°38' E 000°01'0 0.0
2017-Oct-29 16:59N 05°38' E 000°01'0 0.0
2017-Oct-29 16:29N 05°38' E 000°01'0 0.0
2017-Oct-29 15:59N 05°38' E 000°01'0 0.0
2017-Oct-29 15:29N 05°38' E 000°01'0 0.0
2017-Oct-29 14:59N 05°38' E 000°01'0 0.0
2017-Oct-29 14:29N 05°38' E 000°01'0 0.0
2017-Oct-29 13:59N 05°38' E 000°01'0 0.0
2017-Oct-29 13:29N 05°38' E 000°01'0 0.0
2017-Oct-29 12:59N 05°38' E 000°01'0 0.0
2017-Oct-29 12:29N 05°38' E 000°01'0 0.0
2017-Oct-29 11:59N 05°38' E 000°01'0 0.0
2017-Oct-29 11:29N 05°38' E 000°01'0 0.0
2017-Oct-29 10:59N 05°38' E 000°01'0 0.0
2017-Oct-29 10:29N 05°38' E 000°01'0 0.0
2017-Oct-29 09:59N 05°38' E 000°01'0 0.0
2017-Oct-29 09:20N 05°38' E 000°01'0 0.0
2017-Oct-29 08:59N 05°38' E 000°01'0 0.0
2017-Oct-29 08:29N 05°38' E 000°01'0 0.0
2017-Oct-29 07:59N 05°38' E 000°01'0 0.0
2017-Oct-29 07:29N 05°38' E 000°01'0 0.0
2017-Oct-29 06:59N 05°38' E 000°01'0 0.0
2017-Oct-29 06:29N 05°38' E 000°01'0 0.0
2017-Oct-29 05:56N 05°38' E 000°01'0 0.0
2017-Oct-29 05:29N 05°38' E 000°01'0 0.0
2017-Oct-29 04:59N 05°38' E 000°01'0 0.0
2017-Oct-29 04:29N 05°38' E 000°01'0 0.0
2017-Oct-29 03:59N 05°38' E 000°01'0 0.0
2017-Oct-28 18:59N 05°38' E 000°01'0 0.0
2017-Oct-28 18:29N 05°38' E 000°01'0 0.0
2017-Oct-28 17:59N 05°38' E 000°01'0 0.0
2017-Oct-28 17:26N 05°38' E 000°01'0 0.0
2017-Oct-28 16:59N 05°38' E 000°01'0 0.0
2017-Oct-28 16:29N 05°38' E 000°01'0 0.0
2017-Oct-28 15:59N 05°38' E 000°01'0 0.0
2017-Oct-28 15:29N 05°38' E 000°01'0 0.0
2017-Oct-28 14:59N 05°38' E 000°01'0 0.0
2017-Oct-28 14:29N 05°38' E 000°01'0 0.0
2017-Oct-28 13:59N 05°38' E 000°01'0 0.0
2017-Oct-28 13:29N 05°38' E 000°01'0 0.0
2017-Oct-28 12:59N 05°38' E 000°01'0 0.2
2017-Oct-28 12:30N 05°38' E 000°01'1 2.9
2017-Oct-28 12:00N 05°38' E 000°02'0 0.1
2017-Oct-28 11:30N 05°38' E 000°02'2 3.1
2017-Oct-28 11:00N 05°38' E 000°04'0 0.4
2017-Oct-28 10:30N 05°38' E 000°03'0 0.6
2017-Oct-28 10:00N 05°37' E 000°03'1 1.2
2017-Oct-28 09:30N 05°37' E 000°03'0 0.8
2017-Oct-28 09:00N 05°36' E 000°03'3 5.4
2017-Oct-28 08:30N 05°34' E 000°01'0 0.4
2017-Oct-28 07:58N 05°34' E 000°01'0 0.0
2017-Oct-28 07:28N 05°34' E 000°01'0 0.0
2017-Oct-28 06:58N 05°34' E 000°01'0 0.1
2017-Oct-28 06:28N 05°34' E 000°01'0 0.1
2017-Oct-28 05:58N 05°34' E 000°01'0 0.1
2017-Oct-28 05:28N 05°34' E 000°01'0 0.0
2017-Oct-28 04:58N 05°34' E 000°01'0 0.0
2017-Oct-28 04:28N 05°34' E 000°01'0 0.0
2017-Oct-28 03:58N 05°34' E 000°01'0 0.0
2017-Oct-28 03:28N 05°34' E 000°01'0 0.0
2017-Oct-28 02:58N 05°34' E 000°01'0 0.0
2017-Oct-28 02:28N 05°34' E 000°01'0 0.0
2017-Oct-28 01:58N 05°34' E 000°01'0 0.0
2017-Oct-28 01:25N 05°34' E 000°01'0 0.0
2017-Oct-28 00:58N 05°34' E 000°01'0 0.0
2017-Oct-28 00:28N 05°34' E 000°01'0 0.0
2017-Oct-27 23:58N 05°34' E 000°01'0 0.0
2017-Oct-27 23:28N 05°34' E 000°01'0 0.0
2017-Oct-27 22:58N 05°34' E 000°01'0 0.0
2017-Oct-27 22:28N 05°34' E 000°01'0 0.0
2017-Oct-27 21:58N 05°34' E 000°01'0 0.0
2017-Oct-27 21:28N 05°34' E 000°01'0 0.0
2017-Oct-27 20:58N 05°34' E 000°01'0 0.1
2017-Oct-27 20:28N 05°34' E 000°01'0 0.1
2017-Oct-27 19:58N 05°34' E 000°01'0 0.0
2017-Oct-27 19:28N 05°34' E 000°01'0 0.0
2017-Oct-27 18:55N 05°34' E 000°01'0 0.0
2017-Oct-27 18:28N 05°34' E 000°01'0 0.0
2017-Oct-27 17:58N 05°34' E 000°01'0 0.1
2017-Oct-27 17:28N 05°34' E 000°01'0 0.0
2017-Oct-27 16:58N 05°34' E 000°01'0 0.0
2017-Oct-27 16:28N 05°34' E 000°01'0 0.0
2017-Oct-27 15:58N 05°34' E 000°01'0 0.0
2017-Oct-27 15:28N 05°34' E 000°01'0 0.0
2017-Oct-27 14:58N 05°34' E 000°01'0 0.0
2017-Oct-27 14:28N 05°34' E 000°01'0 0.0
2017-Oct-27 13:58N 05°34' E 000°01'0 0.0
2017-Oct-27 13:28N 05°34' E 000°01'0 0.0
2017-Oct-27 12:58N 05°34' E 000°01'0 0.0
2017-Oct-27 12:25N 05°34' E 000°01'0 0.0
2017-Oct-27 11:58N 05°34' E 000°01'0 0.0
2017-Oct-27 11:28N 05°34' E 000°01'0 0.0
2017-Oct-27 10:55N 05°34' E 000°01'0 0.0
2017-Oct-27 10:28N 05°34' E 000°01'0 0.0
2017-Oct-27 09:58N 05°34' E 000°01'0 0.0
2017-Oct-27 09:28N 05°34' E 000°01'0 0.0
2017-Oct-27 08:58N 05°34' E 000°01'0 0.0
2017-Oct-27 08:28N 05°34' E 000°01'0 0.0
2017-Oct-27 07:55N 05°34' E 000°01'0 0.0
2017-Oct-27 07:28N 05°34' E 000°01'0 0.0
2017-Oct-27 06:58N 05°34' E 000°01'0 0.0
2017-Oct-27 06:28N 05°34' E 000°01'0 0.0
2017-Oct-27 05:58N 05°34' E 000°01'0 0.0
2017-Oct-27 05:28N 05°34' E 000°01'0 0.0
2017-Oct-27 04:58N 05°34' E 000°01'0 0.0
2017-Oct-27 04:28N 05°34' E 000°01'0 0.1
2017-Oct-27 03:58N 05°34' E 000°01'0 0.1
2017-Oct-27 03:28N 05°34' E 000°01'0 0.0
2017-Oct-27 02:58N 05°34' E 000°01'0 0.0
2017-Oct-27 02:25N 05°34' E 000°01'0 0.0
2017-Oct-27 01:55N 05°34' E 000°01'0 0.0
2017-Oct-27 01:28N 05°34' E 000°01'0 0.0
2017-Oct-27 00:58N 05°34' E 000°01'0 0.0
2017-Oct-27 00:25N 05°34' E 000°01'0 0.0
2017-Oct-26 23:58N 05°34' E 000°01'0 0.0
2017-Oct-26 23:25N 05°34' E 000°01'0 0.0
2017-Oct-26 22:58N 05°34' E 000°01'0 0.0
2017-Oct-26 22:28N 05°34' E 000°01'0 0.0
2017-Oct-26 21:58N 05°34' E 000°01'0 0.0
2017-Oct-26 21:28N 05°34' E 000°01'0 0.1
2017-Oct-26 20:58N 05°34' E 000°01'0 0.0
2017-Oct-26 20:28N 05°34' E 000°01'0 0.0
2017-Oct-26 19:58N 05°34' E 000°01'0 0.1
2017-Oct-26 19:28N 05°34' E 000°01'0 0.1
2017-Oct-26 18:58N 05°34' E 000°01'0 0.0
2017-Oct-26 18:28N 05°34' E 000°01'0 0.0
2017-Oct-26 17:58N 05°34' E 000°01'0 0.1
2017-Oct-26 17:28N 05°34' E 000°01'0 0.0
2017-Oct-26 16:58N 05°34' E 000°01'0 0.0
2017-Oct-26 16:22N 05°34' E 000°01'0 0.1
2017-Oct-26 15:58N 05°34' E 000°01'0 0.0
2017-Oct-26 15:28N 05°34' E 000°01'0 0.1
2017-Oct-26 14:58N 05°34' E 000°01'0 0.1
2017-Oct-26 14:28N 05°34' E 000°01'0 0.0
2017-Oct-26 13:58N 05°34' E 000°01'0 0.0
2017-Oct-26 13:28N 05°34' E 000°01'0 0.0
2017-Oct-26 12:58N 05°34' E 000°01'0 0.0
2017-Oct-26 12:28N 05°34' E 000°01'0 0.0
2017-Oct-26 11:58N 05°34' E 000°01'0 0.0
2017-Oct-26 11:28N 05°34' E 000°01'0 0.1
2017-Oct-26 10:58N 05°34' E 000°01'0 0.1
2017-Oct-26 10:28N 05°34' E 000°01'0 0.0
2017-Oct-26 09:58N 05°34' E 000°01'0 0.0
2017-Oct-26 09:28N 05°34' E 000°01'0 0.0
2017-Oct-26 08:58N 05°34' E 000°01'0 0.0
2017-Oct-26 08:28N 05°34' E 000°01'0 0.0
2017-Oct-26 07:58N 05°34' E 000°01'0 0.0
2017-Oct-26 07:28N 05°34' E 000°01'0 0.0
2017-Oct-26 06:58N 05°34' E 000°01'0 0.0
2017-Oct-26 06:28N 05°34' E 000°01'0 0.0
2017-Oct-26 05:58N 05°34' E 000°01'0 0.0
2017-Oct-26 05:28N 05°34' E 000°01'0 0.0
2017-Oct-26 04:58N 05°34' E 000°01'0 0.0
2017-Oct-26 04:28N 05°34' E 000°01'0 0.0
2017-Oct-26 03:58N 05°34' E 000°01'0 0.0
2017-Oct-26 03:28N 05°34' E 000°01'0 0.0
2017-Oct-26 02:58N 05°34' E 000°01'0 0.0
2017-Oct-26 02:28N 05°34' E 000°01'0 0.0
2017-Oct-26 01:58N 05°34' E 000°01'0 0.0
2017-Oct-26 01:28N 05°34' E 000°01'0 0.0
2017-Oct-26 00:58N 05°34' E 000°01'0 0.0
2017-Oct-26 00:28N 05°34' E 000°01'0 0.0
2017-Oct-25 23:58N 05°34' E 000°01'0 0.0
2017-Oct-25 23:28N 05°34' E 000°01'0 0.1
2017-Oct-25 22:58N 05°34' E 000°01'0 0.0
2017-Oct-25 22:28N 05°34' E 000°01'0 0.0
2017-Oct-25 21:58N 05°34' E 000°01'0 0.0
2017-Oct-25 21:28N 05°34' E 000°01'0 0.0
2017-Oct-25 20:58N 05°34' E 000°01'0 0.0
2017-Oct-25 20:28N 05°34' E 000°01'0 0.0
2017-Oct-25 19:58N 05°34' E 000°01'0 0.0
2017-Oct-25 19:28N 05°34' E 000°01'0 0.0
2017-Oct-25 18:58N 05°34' E 000°01'0 0.0
2017-Oct-25 18:28N 05°34' E 000°01'0 0.0
2017-Oct-25 17:58N 05°34' E 000°01'0 0.0
2017-Oct-25 17:28N 05°34' E 000°01'0 0.0
2017-Oct-25 16:58N 05°34' E 000°01'0 0.0
2017-Oct-25 16:28N 05°34' E 000°01'0 0.0
2017-Oct-25 15:58N 05°34' E 000°01'0 0.0
2017-Oct-25 15:28N 05°34' E 000°01'0 0.0
2017-Oct-25 14:58N 05°34' E 000°01'0 0.0
2017-Oct-25 14:28N 05°34' E 000°01'0 0.0
2017-Oct-25 13:58N 05°34' E 000°01'0 0.0
2017-Oct-25 13:25N 05°34' E 000°01'0 0.2
2017-Oct-25 12:58N 05°34' E 000°01'1 2.1
2017-Oct-25 12:31N 05°34' E 000°02'4 8.4
2017-Oct-25 12:01N 05°30' E 000°03'510.8
2017-Oct-25 11:31N 05°24' E 000°02'510.8
2017-Oct-25 11:01N 05°21' W 000°02'612.5
2017-Oct-25 10:31N 05°17' W 000°07'714.2
2017-Oct-25 10:00N 05°13' W 000°13'  

Dump ship's entire track history